createdAt,value
2018-08-12T00:01:13.101Z,38.90
2018-08-12T00:03:16.326Z,38.90
2018-08-12T00:05:20.756Z,39.10
2018-08-12T00:07:25.279Z,39.20
2018-08-12T00:09:28.962Z,39.90
2018-08-12T00:11:31.841Z,39.20
2018-08-12T00:13:34.718Z,39.20
2018-08-12T00:15:37.708Z,39.20
2018-08-12T00:17:40.682Z,39.30
2018-08-12T00:19:43.560Z,39.30
2018-08-12T00:21:47.986Z,39.50
2018-08-12T00:23:52.370Z,39.50
2018-08-12T00:25:55.280Z,39.50
2018-08-12T00:27:58.207Z,39.60
2018-08-12T00:30:01.880Z,39.90
2018-08-12T00:32:05.521Z,39.90
2018-08-12T00:34:08.419Z,39.90
2018-08-12T00:36:11.317Z,39.90
2018-08-12T00:38:14.305Z,40.00
2018-08-12T00:40:17.302Z,40.00
2018-08-12T00:42:20.145Z,40.00
2018-08-12T00:44:23.053Z,39.90
2018-08-12T00:46:26.140Z,40.00
2018-08-12T00:48:29.005Z,40.20
2018-08-12T00:50:31.879Z,40.20
2018-08-12T00:52:34.775Z,40.10
2018-08-12T00:54:37.677Z,40.20
2018-08-12T00:56:41.360Z,40.40
2018-08-12T00:58:44.445Z,40.30
2018-08-12T01:00:47.429Z,40.40
2018-08-12T01:02:50.564Z,40.40
2018-08-12T01:04:53.469Z,40.40
2018-08-12T01:06:56.478Z,40.40
2018-08-12T01:08:59.467Z,40.30
2018-08-12T01:11:02.441Z,40.30
2018-08-12T01:13:05.313Z,40.40
2018-08-12T01:15:08.180Z,40.30
2018-08-12T01:17:11.188Z,40.50
2018-08-12T01:19:14.060Z,40.50
2018-08-12T01:21:17.096Z,40.40
2018-08-12T01:23:20.752Z,40.60
2018-08-12T01:25:23.775Z,40.50
2018-08-12T01:27:28.124Z,40.60
2018-08-12T01:29:31.026Z,40.50
2018-08-12T01:31:33.889Z,40.60
2018-08-12T01:33:36.797Z,40.80
2018-08-12T01:35:41.204Z,41.00
2018-08-12T01:37:44.068Z,41.00
2018-08-12T01:39:46.974Z,41.10
2018-08-12T01:41:51.382Z,41.40
2018-08-12T01:43:54.253Z,42.00
2018-08-12T01:45:57.150Z,41.50
2018-08-12T01:48:00.133Z,41.50
2018-08-12T01:50:03.000Z,41.60
2018-08-12T01:52:05.876Z,41.70
2018-08-12T01:54:08.878Z,41.80
2018-08-12T01:56:11.745Z,41.90
2018-08-12T01:58:14.616Z,42.00
2018-08-12T02:00:17.501Z,42.00
2018-08-12T02:02:20.401Z,42.00
2018-08-12T02:04:23.284Z,41.90
2018-08-12T02:06:26.574Z,42.00
2018-08-12T02:08:29.440Z,42.10
2018-08-12T02:10:32.412Z,42.20
2018-08-12T02:12:35.312Z,42.30
2018-08-12T02:14:38.184Z,42.50
2018-08-12T02:16:41.052Z,42.40
2018-08-12T02:18:44.053Z,42.50
2018-08-12T02:20:46.940Z,42.50
2018-08-12T02:22:49.805Z,42.60
2018-08-12T02:24:52.800Z,42.60
2018-08-12T02:26:55.677Z,42.70
2018-08-12T02:28:58.549Z,42.70
2018-08-12T02:31:01.446Z,42.80
2018-08-12T02:33:04.312Z,42.80
2018-08-12T02:35:07.193Z,42.90
2018-08-12T02:37:10.193Z,43.10
2018-08-12T02:39:13.169Z,43.20
2018-08-12T02:41:16.053Z,43.30
2018-08-12T02:43:20.473Z,43.50
2018-08-12T02:45:23.453Z,43.50
2018-08-12T02:47:26.338Z,43.50
2018-08-12T02:49:29.317Z,43.60
2018-08-12T02:51:32.193Z,43.70
2018-08-12T02:53:36.577Z,43.90
2018-08-12T02:55:39.549Z,43.80
2018-08-12T02:57:42.473Z,43.90
2018-08-12T02:59:45.357Z,43.90
2018-08-12T03:01:48.337Z,44.00
2018-08-12T03:03:51.241Z,44.00
2018-08-12T03:05:55.607Z,44.20
2018-08-12T03:07:58.525Z,44.20
2018-08-12T03:10:01.397Z,44.20
2018-08-12T03:12:04.397Z,44.20
2018-08-12T03:14:07.370Z,44.30
2018-08-12T03:16:10.351Z,44.40
2018-08-12T03:18:13.337Z,44.50
2018-08-12T03:20:16.258Z,44.60
2018-08-12T03:22:19.151Z,44.70
2018-08-12T03:24:22.073Z,44.70
2018-08-12T03:26:25.264Z,44.80
2018-08-12T03:28:28.145Z,44.80
2018-08-12T03:30:31.025Z,44.80
2018-08-12T03:32:34.007Z,44.80
2018-08-12T03:34:36.891Z,44.80
2018-08-12T03:36:39.774Z,44.80
2018-08-12T03:38:42.857Z,44.80
2018-08-12T03:40:45.837Z,44.70
2018-08-12T03:42:48.720Z,44.80
2018-08-12T03:44:51.705Z,44.90
2018-08-12T03:46:56.092Z,45.00
2018-08-12T03:48:59.053Z,44.90
2018-08-12T03:51:01.982Z,45.00
2018-08-12T03:53:04.840Z,45.00
2018-08-12T03:55:07.710Z,45.00
2018-08-12T03:57:10.599Z,45.00
2018-08-12T03:59:13.511Z,45.00
2018-08-12T04:01:16.427Z,45.00
2018-08-12T04:03:19.468Z,45.00
2018-08-12T04:05:22.341Z,45.00
2018-08-12T04:07:25.205Z,44.90
2018-08-12T04:09:28.221Z,44.90
2018-08-12T04:11:31.117Z,44.90
2018-08-12T04:13:34.797Z,45.00
2018-08-12T04:15:37.885Z,44.90
2018-08-12T04:17:40.752Z,44.90
2018-08-12T04:19:43.644Z,45.00
2018-08-12T04:21:46.533Z,45.00
2018-08-12T04:23:49.401Z,45.00
2018-08-12T04:25:52.289Z,45.10
2018-08-12T04:27:55.268Z,45.10
2018-08-12T04:29:58.137Z,45.10
2018-08-12T04:32:01.133Z,45.10
2018-08-12T04:34:04.016Z,45.10
2018-08-12T04:36:06.889Z,45.00
2018-08-12T04:38:09.756Z,45.00
2018-08-12T04:40:12.654Z,44.90
2018-08-12T04:42:15.531Z,44.90
2018-08-12T04:44:18.401Z,45.10
2018-08-12T04:46:21.298Z,45.10
2018-08-12T04:48:24.169Z,45.20
2018-08-12T04:50:27.041Z,45.30
2018-08-12T04:52:29.940Z,45.40
2018-08-12T04:54:32.812Z,45.50
2018-08-12T04:56:35.683Z,45.40
2018-08-12T04:58:38.588Z,45.60
2018-08-12T05:00:42.974Z,45.60
2018-08-12T05:02:45.848Z,45.50
2018-08-12T05:04:48.747Z,45.70
2018-08-12T05:06:51.624Z,45.70
2018-08-12T05:08:54.521Z,45.80
2018-08-12T05:10:57.413Z,45.90
2018-08-12T05:13:00.300Z,46.00
2018-08-12T05:15:03.264Z,46.10
2018-08-12T05:17:06.557Z,46.30
2018-08-12T05:19:09.481Z,46.40
2018-08-12T05:21:12.417Z,46.50
2018-08-12T05:23:15.306Z,46.60
2018-08-12T05:25:18.183Z,46.70
2018-08-12T05:27:21.100Z,46.80
2018-08-12T05:29:24.046Z,46.80
2018-08-12T05:31:27.374Z,46.80
2018-08-12T05:33:31.141Z,46.90
2018-08-12T05:35:34.053Z,46.90
2018-08-12T05:37:37.685Z,47.10
2018-08-12T05:39:40.597Z,47.00
2018-08-12T05:41:43.785Z,47.00
2018-08-12T05:43:46.657Z,47.20
2018-08-12T05:45:49.535Z,47.20
2018-08-12T05:47:52.446Z,47.20
2018-08-12T05:49:56.125Z,47.30
2018-08-12T05:51:59.013Z,47.20
2018-08-12T05:54:02.218Z,47.20
2018-08-12T05:56:05.865Z,47.30
2018-08-12T05:58:08.778Z,47.20
2018-08-12T06:00:11.669Z,47.30
2018-08-12T06:02:14.637Z,47.20
2018-08-12T06:04:17.552Z,47.20
2018-08-12T06:06:21.219Z,47.20
2018-08-12T06:08:25.604Z,47.30
2018-08-12T06:10:28.522Z,47.20
2018-08-12T06:12:33.029Z,47.20
2018-08-12T06:14:35.916Z,47.10
2018-08-12T06:16:38.784Z,47.10
2018-08-12T06:18:41.919Z,47.00
2018-08-12T06:20:46.297Z,46.80
2018-08-12T06:22:49.160Z,46.80
2018-08-12T06:24:52.378Z,46.70
2018-08-12T06:26:56.066Z,46.70
2018-08-12T06:28:58.940Z,46.70
2018-08-12T06:31:01.928Z,46.60
2018-08-12T06:33:04.917Z,46.60
2018-08-12T06:35:07.792Z,46.50
2018-08-12T06:37:10.676Z,46.30
2018-08-12T06:39:13.548Z,46.10
2018-08-12T06:41:16.451Z,45.90
2018-08-12T06:43:19.380Z,45.80
2018-08-12T06:45:22.270Z,45.80
2018-08-12T06:47:25.178Z,45.70
2018-08-12T06:49:28.074Z,45.60
2018-08-12T06:51:32.452Z,45.50
2018-08-12T06:53:35.329Z,45.50
2018-08-12T06:55:38.283Z,45.40
2018-08-12T06:57:43.154Z,45.40
2018-08-12T06:59:46.050Z,45.30
2018-08-12T07:01:48.951Z,45.20
2018-08-12T07:03:52.596Z,45.20
2018-08-12T07:05:55.547Z,45.10
2018-08-12T07:07:59.212Z,44.90
2018-08-12T07:10:02.102Z,44.80
2018-08-12T07:12:04.981Z,44.70
2018-08-12T07:14:09.435Z,44.50
2018-08-12T07:16:13.056Z,44.40
2018-08-12T07:18:15.938Z,44.30
2018-08-12T07:20:18.848Z,44.10
2018-08-12T07:22:21.833Z,44.00
2018-08-12T07:24:26.252Z,43.80
2018-08-12T07:26:29.237Z,43.80
2018-08-12T07:28:32.110Z,43.70
2018-08-12T07:30:36.533Z,43.60
2018-08-12T07:32:41.265Z,43.70
2018-08-12T07:34:44.137Z,43.60
2018-08-12T07:36:48.553Z,43.50
2018-08-12T07:38:51.502Z,43.50
2018-08-12T07:40:55.128Z,43.40
2018-08-12T07:42:59.549Z,43.20
2018-08-12T07:45:02.467Z,43.10
2018-08-12T07:47:06.096Z,43.00
2018-08-12T07:49:08.968Z,42.90
2018-08-12T07:51:11.861Z,42.90
2018-08-12T07:53:14.737Z,42.80
2018-08-12T07:55:17.628Z,42.80
2018-08-12T07:57:20.813Z,42.60
2018-08-12T07:59:23.825Z,42.50
2018-08-12T08:01:28.203Z,42.00
2018-08-12T08:03:31.156Z,41.90
2018-08-12T08:05:34.780Z,41.60
2018-08-12T08:07:37.667Z,41.50
2018-08-12T08:09:40.889Z,41.40
2018-08-12T08:11:43.869Z,41.30
2018-08-12T08:13:46.744Z,41.00
2018-08-12T08:15:49.648Z,40.80
2018-08-12T08:17:52.518Z,40.80
2018-08-12T08:19:55.459Z,40.90
2018-08-12T08:21:58.684Z,41.00
2018-08-12T08:24:01.545Z,40.90
2018-08-12T08:26:04.424Z,40.80
2018-08-12T08:28:07.365Z,40.50
2018-08-12T08:30:11.120Z,39.60
2018-08-12T08:32:15.638Z,39.50
2018-08-12T08:34:18.527Z,39.40
2018-08-12T08:36:21.441Z,39.40
2018-08-12T08:38:24.379Z,39.20
2018-08-12T08:40:27.370Z,38.80
2018-08-12T08:42:31.891Z,38.70
2018-08-12T08:44:36.276Z,38.60
2018-08-12T08:46:39.199Z,38.50
2018-08-12T08:48:42.065Z,38.40
2018-08-12T08:50:45.109Z,38.10
2018-08-12T08:52:49.569Z,37.80
2018-08-12T08:54:52.445Z,37.70
2018-08-12T08:56:55.337Z,37.70
2018-08-12T08:58:58.230Z,37.60
2018-08-12T09:01:01.886Z,37.00
2018-08-12T09:03:04.793Z,36.90
2018-08-12T09:05:07.693Z,36.70
2018-08-12T09:07:11.333Z,36.80
2018-08-12T09:09:14.509Z,36.70
2018-08-12T09:11:17.443Z,36.80
2018-08-12T09:13:20.316Z,36.70
2018-08-12T09:15:23.201Z,36.70
2018-08-12T09:17:26.922Z,36.50
2018-08-12T09:19:30.597Z,36.40
2018-08-12T09:21:33.470Z,36.30
2018-08-12T09:23:36.420Z,36.20
2018-08-12T09:25:39.345Z,36.00
2018-08-12T09:27:42.216Z,36.00
2018-08-12T09:29:45.116Z,35.80
2018-08-12T09:31:48.028Z,35.70
2018-08-12T09:33:51.656Z,35.60
2018-08-12T09:35:54.681Z,35.60
2018-08-12T09:37:57.557Z,35.50
2018-08-12T09:40:00.425Z,35.50
2018-08-12T09:42:03.313Z,35.40
2018-08-12T09:44:07.741Z,35.30
2018-08-12T09:46:12.149Z,35.10
2018-08-12T09:48:15.069Z,35.70
2018-08-12T09:50:18.732Z,34.80
2018-08-12T09:52:21.609Z,34.70
2018-08-12T09:54:24.692Z,34.60
2018-08-12T09:56:27.578Z,34.70
2018-08-12T09:58:30.475Z,34.80
2018-08-12T10:00:33.457Z,35.00
2018-08-12T10:02:37.102Z,35.00
2018-08-12T10:04:40.029Z,34.90
2018-08-12T10:06:42.909Z,34.80
2018-08-12T10:08:45.789Z,34.60
2018-08-12T10:10:48.767Z,34.60
2018-08-12T10:12:51.665Z,34.50
2018-08-12T10:14:55.313Z,34.70
2018-08-12T10:16:58.194Z,34.10
2018-08-12T10:19:01.096Z,33.90
2018-08-12T10:21:03.992Z,33.70
2018-08-12T10:23:06.860Z,33.50
2018-08-12T10:25:09.737Z,33.40
2018-08-12T10:27:12.618Z,33.30
2018-08-12T10:29:15.672Z,33.10
2018-08-12T10:31:18.603Z,33.00
2018-08-12T10:33:21.469Z,32.60
2018-08-12T10:35:24.348Z,32.50
2018-08-12T10:37:27.245Z,32.50
2018-08-12T10:39:30.113Z,32.40
2018-08-12T10:41:32.998Z,32.50
2018-08-12T10:43:35.896Z,32.40
2018-08-12T10:45:39.549Z,32.60
2018-08-12T10:47:42.420Z,32.50
2018-08-12T10:49:45.645Z,32.50
2018-08-12T10:51:48.514Z,32.50
2018-08-12T10:53:51.393Z,32.50
2018-08-12T10:55:54.377Z,32.50
2018-08-12T10:57:57.240Z,32.40
2018-08-12T11:00:00.112Z,32.30
2018-08-12T11:02:02.998Z,32.20
2018-08-12T11:04:05.882Z,32.30
2018-08-12T11:06:08.761Z,32.20
2018-08-12T11:08:11.668Z,32.30
2018-08-12T11:10:14.541Z,32.20
2018-08-12T11:12:17.438Z,32.10
2018-08-12T11:14:20.621Z,32.00
2018-08-12T11:16:23.497Z,31.90
2018-08-12T11:18:26.389Z,31.90
2018-08-12T11:20:29.476Z,31.90
2018-08-12T11:22:32.345Z,31.80
2018-08-12T11:24:35.224Z,31.80
2018-08-12T11:26:38.150Z,31.60
2018-08-12T11:28:41.982Z,31.50
2018-08-12T11:30:45.573Z,31.40
2018-08-12T11:32:48.534Z,31.40
2018-08-12T11:34:52.262Z,31.50
2018-08-12T11:36:56.573Z,31.40
2018-08-12T11:38:59.461Z,31.40
2018-08-12T11:41:02.359Z,31.30
2018-08-12T11:43:05.265Z,31.20
2018-08-12T11:45:08.337Z,31.10
2018-08-12T11:47:11.212Z,31.00
2018-08-12T11:49:14.123Z,30.80
2018-08-12T11:51:17.080Z,30.60
2018-08-12T11:53:19.944Z,30.50
2018-08-12T11:55:22.945Z,30.20
2018-08-12T11:57:26.353Z,30.10
2018-08-12T11:59:30.037Z,30.20
2018-08-12T12:01:33.024Z,30.10
2018-08-12T12:03:36.000Z,30.10
2018-08-12T12:05:38.989Z,30.00
2018-08-12T12:07:41.988Z,30.40
2018-08-12T12:09:44.901Z,29.80
2018-08-12T12:11:47.772Z,29.80
2018-08-12T12:13:50.753Z,29.80
2018-08-12T12:15:53.700Z,29.80
2018-08-12T12:17:56.577Z,29.60
2018-08-12T12:19:59.457Z,29.60
2018-08-12T12:22:02.446Z,29.50
2018-08-12T12:24:05.422Z,29.40
2018-08-12T12:26:09.806Z,29.60
2018-08-12T12:28:13.649Z,29.50
2018-08-12T12:30:16.520Z,29.40
2018-08-12T12:32:19.385Z,29.20
2018-08-12T12:34:22.288Z,29.10
2018-08-12T12:36:25.221Z,29.00
2018-08-12T12:38:28.096Z,29.10
2018-08-12T12:40:31.008Z,29.20
2018-08-12T12:42:33.882Z,29.10
2018-08-12T12:44:36.756Z,28.90
2018-08-12T12:46:39.961Z,28.80
2018-08-12T12:48:42.833Z,28.80
2018-08-12T12:50:45.738Z,28.70
2018-08-12T12:52:48.731Z,28.60
2018-08-12T12:54:53.146Z,28.50
2018-08-12T12:56:56.025Z,28.50
2018-08-12T12:58:59.106Z,28.40
2018-08-12T13:01:01.973Z,28.40
2018-08-12T13:03:04.961Z,28.10
2018-08-12T13:05:07.891Z,27.90
2018-08-12T13:07:11.549Z,27.70
2018-08-12T13:09:14.430Z,27.70
2018-08-12T13:11:17.414Z,27.60
2018-08-12T13:13:20.290Z,27.60
2018-08-12T13:15:23.166Z,27.50
2018-08-12T13:17:26.873Z,27.30
2018-08-12T13:19:29.758Z,27.40
2018-08-12T13:21:32.624Z,27.30
2018-08-12T13:23:35.621Z,27.40
2018-08-12T13:25:38.492Z,27.40
2018-08-12T13:27:41.377Z,27.30
2018-08-12T13:29:44.370Z,27.30
2018-08-12T13:31:47.242Z,27.30
2018-08-12T13:33:50.113Z,27.30
2018-08-12T13:35:53.308Z,27.30
2018-08-12T13:37:56.334Z,27.20
2018-08-12T13:39:59.241Z,27.10
2018-08-12T13:42:02.479Z,27.00
2018-08-12T13:44:05.348Z,27.00
2018-08-12T13:46:08.266Z,27.00
2018-08-12T13:48:11.522Z,27.00
2018-08-12T13:50:14.393Z,26.80
2018-08-12T13:52:17.280Z,26.50
2018-08-12T13:54:20.179Z,26.30
2018-08-12T13:56:23.856Z,26.50
2018-08-12T13:58:26.725Z,26.00
2018-08-12T14:00:29.626Z,25.80
2018-08-12T14:02:32.505Z,25.60
2018-08-12T14:04:35.373Z,25.50
2018-08-12T14:06:38.265Z,25.40
2018-08-12T14:08:41.136Z,25.30
2018-08-12T14:10:44.015Z,25.20
2018-08-12T14:12:46.996Z,25.00
2018-08-12T14:14:49.892Z,25.10
2018-08-12T14:16:52.759Z,24.90
2018-08-12T14:18:55.768Z,24.80
2018-08-12T14:20:58.651Z,24.90
2018-08-12T14:23:01.526Z,24.90
2018-08-12T14:25:04.493Z,24.80
2018-08-12T14:27:07.472Z,24.90
2018-08-12T14:29:10.460Z,25.00
2018-08-12T14:31:13.354Z,24.90
2018-08-12T14:33:16.325Z,24.80
2018-08-12T14:35:19.204Z,24.60
2018-08-12T14:37:22.142Z,24.50
2018-08-12T14:39:25.888Z,24.30
2018-08-12T14:41:28.877Z,24.20
2018-08-12T14:43:31.843Z,24.20
2018-08-12T14:45:35.451Z,24.40
2018-08-12T14:47:38.317Z,24.30
2018-08-12T14:49:41.526Z,24.30
2018-08-12T14:51:44.401Z,24.20
2018-08-12T14:53:47.276Z,24.20
2018-08-12T14:55:50.264Z,24.10
2018-08-12T14:57:53.241Z,23.80
2018-08-12T14:59:56.026Z,23.70
2018-08-12T15:01:59.011Z,23.60
2018-08-12T15:04:01.878Z,23.30
2018-08-12T15:06:04.744Z,23.30
2018-08-12T15:08:07.652Z,23.30
2018-08-12T15:10:10.521Z,23.10
2018-08-12T15:12:13.413Z,23.00
2018-08-12T15:14:16.297Z,22.80
2018-08-12T15:16:19.281Z,22.90
2018-08-12T15:18:22.145Z,22.90
2018-08-12T15:20:25.138Z,22.90
2018-08-12T15:22:28.032Z,22.80
2018-08-12T15:24:30.896Z,22.80
2018-08-12T15:26:34.188Z,22.80
2018-08-12T15:28:37.092Z,22.70
2018-08-12T15:30:39.936Z,22.80
2018-08-12T15:32:42.832Z,22.90
2018-08-12T15:34:45.709Z,22.80
2018-08-12T15:36:48.585Z,22.70
2018-08-12T15:38:51.501Z,22.70
2018-08-12T15:40:55.142Z,22.70
2018-08-12T15:42:58.036Z,22.60
2018-08-12T15:45:00.941Z,22.60
2018-08-12T15:47:03.854Z,22.50
2018-08-12T15:49:06.797Z,22.60
2018-08-12T15:51:09.751Z,22.70
2018-08-12T15:53:12.702Z,22.70
2018-08-12T15:55:16.329Z,22.90
2018-08-12T15:57:19.545Z,22.80
2018-08-12T15:59:22.423Z,22.90
2018-08-12T16:01:25.312Z,22.80
2018-08-12T16:03:28.400Z,22.90
2018-08-12T16:05:31.220Z,22.90
2018-08-12T16:07:34.198Z,22.90
2018-08-12T16:09:37.838Z,22.90
2018-08-12T16:11:40.701Z,22.80
2018-08-12T16:13:43.616Z,22.90
2018-08-12T16:15:46.612Z,22.90
2018-08-12T16:17:49.489Z,22.90
2018-08-12T16:19:52.460Z,23.00
2018-08-12T16:21:56.161Z,23.10
2018-08-12T16:23:59.047Z,23.00
2018-08-12T16:26:01.913Z,23.00
2018-08-12T16:28:04.804Z,22.90
2018-08-12T16:30:07.673Z,23.00
2018-08-12T16:32:10.573Z,22.90
2018-08-12T16:34:13.655Z,22.90
2018-08-12T16:36:16.526Z,22.80
2018-08-12T16:38:19.396Z,22.80
2018-08-12T16:40:22.603Z,22.80
2018-08-12T16:42:25.472Z,22.70
2018-08-12T16:44:28.371Z,22.70
2018-08-12T16:46:31.344Z,22.60
2018-08-12T16:48:34.209Z,22.50
2018-08-12T16:50:37.147Z,22.50
2018-08-12T16:52:40.136Z,22.60
2018-08-12T16:54:43.119Z,22.60
2018-08-12T16:56:45.988Z,22.70
2018-08-12T16:58:49.141Z,22.60
2018-08-12T17:00:52.017Z,22.60
2018-08-12T17:02:54.889Z,22.60
2018-08-12T17:04:58.196Z,22.60
2018-08-12T17:07:01.179Z,22.60
2018-08-12T17:09:04.052Z,22.60
2018-08-12T17:11:06.956Z,22.60
2018-08-12T17:13:10.596Z,22.60
2018-08-12T17:15:13.533Z,22.50
2018-08-12T17:17:16.418Z,22.50
2018-08-12T17:19:19.281Z,22.60
2018-08-12T17:21:22.163Z,22.60
2018-08-12T17:23:25.144Z,22.70
2018-08-12T17:25:28.028Z,22.80
2018-08-12T17:27:30.906Z,22.80
2018-08-12T17:29:33.801Z,22.80
2018-08-12T17:31:37.493Z,23.10
2018-08-12T17:33:40.369Z,22.90
2018-08-12T17:35:43.367Z,23.00
2018-08-12T17:37:46.332Z,23.20
2018-08-12T17:39:49.208Z,23.40
2018-08-12T17:41:52.112Z,23.50
2018-08-12T17:43:55.792Z,23.60
2018-08-12T17:46:08.649Z,23.60
2018-08-12T17:49:46.253Z,23.70
2018-08-12T17:59:45.088Z,23.60
2018-08-12T18:04:14.421Z,25.20
2018-08-12T18:06:17.346Z,24.70
2018-08-12T18:08:20.217Z,24.70
2018-08-12T18:10:23.213Z,25.00
2018-08-12T18:12:26.501Z,25.10
2018-08-12T18:14:29.374Z,25.20
2018-08-12T18:16:32.250Z,25.30
2018-08-12T18:18:35.149Z,25.30
2018-08-12T18:20:38.888Z,25.60
2018-08-12T18:22:41.725Z,25.60
2018-08-12T18:24:46.245Z,25.80
2018-08-12T18:26:49.125Z,25.80
2018-08-12T18:28:52.006Z,26.00
2018-08-12T18:30:54.896Z,26.20
2018-08-12T18:32:58.581Z,26.50
2018-08-12T18:35:01.453Z,26.50
2018-08-12T18:37:04.640Z,26.60
2018-08-12T18:39:07.505Z,26.80
2018-08-12T18:41:10.383Z,27.00
2018-08-12T18:43:13.305Z,27.10
2018-08-12T18:45:16.173Z,27.20
2018-08-12T18:47:19.154Z,27.30
2018-08-12T18:49:22.050Z,27.60
2018-08-12T18:51:24.968Z,27.80
2018-08-12T18:53:27.901Z,28.00
2018-08-12T18:55:30.798Z,28.10
2018-08-12T18:57:34.431Z,28.30
2018-08-12T18:59:37.357Z,28.30
2018-08-12T19:01:40.262Z,28.60
2018-08-12T19:03:43.941Z,29.40
2018-08-12T19:05:46.816Z,28.80
2018-08-12T19:07:49.731Z,28.80
2018-08-12T19:09:53.469Z,29.10
2018-08-12T19:11:56.389Z,29.10
2018-08-12T19:13:59.408Z,29.20
2018-08-12T19:16:03.078Z,29.40
2018-08-12T19:18:06.007Z,29.40
2018-08-12T19:20:08.848Z,29.40
2018-08-12T19:22:12.525Z,29.30
2018-08-12T19:24:15.409Z,29.30
2018-08-12T19:26:18.301Z,29.20
2018-08-12T19:28:21.274Z,29.20
2018-08-12T19:30:24.149Z,29.40
2018-08-12T19:32:27.441Z,29.50
2018-08-12T19:34:30.391Z,29.40
2018-08-12T19:36:33.318Z,29.40
2018-08-12T19:38:36.209Z,29.50
2018-08-12T19:40:39.894Z,29.70
2018-08-12T19:42:42.772Z,29.70
2018-08-12T19:44:45.687Z,29.70
2018-08-12T19:46:49.437Z,29.90
2018-08-12T19:48:52.220Z,29.80
2018-08-12T19:50:55.321Z,29.80
2018-08-12T19:52:58.201Z,29.90
2018-08-12T19:55:01.075Z,29.90
2018-08-12T19:57:03.976Z,29.90
2018-08-12T19:59:07.665Z,30.60
2018-08-12T20:01:10.569Z,30.00
2018-08-12T20:03:14.239Z,30.00
2018-08-12T20:05:17.129Z,30.00
2018-08-12T20:07:20.102Z,30.00
2018-08-12T20:09:23.085Z,30.00
2018-08-12T20:11:25.956Z,30.00
2018-08-12T20:13:28.841Z,30.00
2018-08-12T20:15:31.740Z,30.00
2018-08-12T20:17:34.623Z,30.10
2018-08-12T20:19:38.304Z,30.20
2018-08-12T20:21:41.270Z,30.20
2018-08-12T20:23:44.145Z,30.30
2018-08-12T20:25:47.026Z,30.30
2018-08-12T20:27:49.934Z,30.20
2018-08-12T20:29:52.928Z,30.30
2018-08-12T20:31:55.917Z,30.40
2018-08-12T20:33:59.739Z,31.20
2018-08-12T20:36:03.372Z,30.80
2018-08-12T20:38:06.252Z,30.60
2018-08-12T20:40:09.474Z,30.70
2018-08-12T20:42:12.452Z,30.80
2018-08-12T20:44:15.342Z,30.90
2018-08-12T20:46:18.315Z,30.90
2018-08-12T20:48:21.183Z,31.00
2018-08-12T20:50:24.049Z,31.10
2018-08-12T20:52:27.201Z,31.10
2018-08-12T20:54:30.057Z,31.30
2018-08-12T20:56:32.926Z,31.40
2018-08-12T20:58:35.905Z,31.50
2018-08-12T21:00:39.709Z,31.60
2018-08-12T21:02:42.581Z,31.70
2018-08-12T21:04:45.574Z,31.80
2018-08-12T21:06:48.556Z,31.90
2018-08-12T21:08:51.450Z,32.00
2018-08-12T21:10:54.417Z,32.00
2018-08-12T21:12:57.289Z,32.10
2018-08-12T21:15:00.166Z,32.10
2018-08-12T21:17:03.073Z,32.30
2018-08-12T21:19:06.092Z,32.30
2018-08-12T21:21:10.426Z,32.60
2018-08-12T21:23:13.334Z,32.50
2018-08-12T21:25:16.207Z,32.60
2018-08-12T21:27:19.080Z,32.70
2018-08-12T21:29:22.081Z,32.70
2018-08-12T21:31:25.065Z,32.90
2018-08-12T21:33:28.003Z,33.00
2018-08-12T21:35:30.841Z,33.10
2018-08-12T21:37:34.492Z,33.20
2018-08-12T21:39:37.382Z,33.20
2018-08-12T21:41:40.288Z,33.20
2018-08-12T21:43:43.168Z,33.20
2018-08-12T21:45:46.841Z,33.40
2018-08-12T21:47:49.858Z,33.40
2018-08-12T21:49:52.836Z,33.40
2018-08-12T21:51:57.254Z,33.50
2018-08-12T21:54:00.238Z,33.50
2018-08-12T21:56:03.117Z,33.50
2018-08-12T21:58:06.002Z,33.60
2018-08-12T22:00:08.894Z,33.70
2018-08-12T22:02:12.536Z,33.20
2018-08-12T22:04:15.460Z,33.70
2018-08-12T22:06:18.382Z,33.70
2018-08-12T22:08:22.005Z,33.60
2018-08-12T22:10:24.909Z,33.60
2018-08-12T22:12:27.814Z,33.60
2018-08-12T22:14:31.465Z,34.00
2018-08-12T22:16:34.341Z,33.50
2018-08-12T22:18:37.245Z,33.50
2018-08-12T22:20:40.113Z,33.70
2018-08-12T22:22:42.984Z,33.70
2018-08-12T22:24:46.033Z,33.70
2018-08-12T22:26:49.673Z,33.90
2018-08-12T22:28:52.548Z,34.40
2018-08-12T22:30:55.672Z,33.90
2018-08-12T22:32:58.549Z,33.90
2018-08-12T22:35:01.437Z,34.00
2018-08-12T22:37:04.316Z,34.10
2018-08-12T22:39:07.540Z,34.10
2018-08-12T22:41:11.165Z,34.20
2018-08-12T22:43:14.077Z,34.10
2018-08-12T22:45:16.957Z,34.20
2018-08-12T22:47:21.376Z,34.40
2018-08-12T22:49:24.376Z,34.30
2018-08-12T22:51:28.024Z,35.00
2018-08-12T22:53:30.900Z,34.40
2018-08-12T22:55:33.796Z,34.50
2018-08-12T22:57:36.667Z,34.50
2018-08-12T22:59:39.585Z,34.60
2018-08-12T23:01:42.831Z,34.60
2018-08-12T23:03:45.758Z,34.60
2018-08-12T23:05:48.634Z,34.70
2018-08-12T23:07:51.700Z,34.60
2018-08-12T23:09:54.493Z,34.60
2018-08-12T23:11:57.486Z,34.70
2018-08-12T23:14:00.569Z,34.70
2018-08-12T23:16:15.208Z,34.70
2018-08-12T23:18:18.090Z,34.80
2018-08-12T23:20:21.084Z,34.70
2018-08-12T23:22:23.952Z,34.90
2018-08-12T23:24:26.839Z,34.90
2018-08-12T23:26:29.773Z,34.90
2018-08-12T23:28:32.761Z,35.00
2018-08-12T23:30:36.417Z,35.70
2018-08-12T23:32:39.397Z,35.00
2018-08-12T23:34:42.281Z,35.10
2018-08-12T23:36:45.154Z,35.20
2018-08-12T23:38:48.067Z,35.30
2018-08-12T23:40:51.737Z,35.70
2018-08-12T23:42:54.604Z,35.70
2018-08-12T23:44:57.501Z,35.80
2018-08-12T23:47:00.378Z,35.80
2018-08-12T23:49:03.253Z,35.90
2018-08-12T23:51:06.353Z,35.90
2018-08-12T23:53:09.281Z,35.80
2018-08-12T23:55:12.213Z,35.90
2018-08-12T23:57:15.125Z,36.00
2018-08-12T23:59:18.788Z,36.30
